Pagina principale
METAR-TAF:

METAR-TAF

Aeroporti :

Aeroporto di Brescia-Ghedi

Brescia Ghedi, Italia

latitudine: 45-25N, longitudine: 010-17E, altezza: 102 m

Osservazione

Il bollettino è stato emesso 1 ora e 10 minuti fa, alle 20:55 UTC
Vento 4 kt da sud-est
Temperature 6°C
Umidità 70%
Pressione 1007 hPa
Visibilità: 7000 m
Nubi sparse ad un'altezza di 5000 ft
Nuvoloso ad un'altezza di 7000 ft

METAR: LIPL 192055Z 13004KT 7000 SCT050 BKN070 06/01 Q1007 RMK OVC VIS MIN 7000 WIND THR31 12003KT WIND THR13 14004KT WHT

Ora: 23:05 (22:05 UTC)

Previsione

Il bollettino è stato emesso 2 ore e 5 minuti fa, alle 20:00 UTC
Previsione valida dal 19 alle 21 UTC al 20 alle 06 UTC
Vento 10 kt da est
Visibilità: 6000 m
Nubi sparse ad un'altezza di 2500 ft
Nuvoloso ad un'altezza di 5000 ft
Temporaneamente
dal 19 alle 21 UTC al 20 alle 06 UTC
Visibilità: 4000 m
pioggia, foschia

TAF: LIPL 192000Z 1921/2006 10010KT 6000 SCT025 BKN050 TEMPO 1921/2006 4000 RA BR

Osservazioni e previsioni meteorologiche di più di 4000 aeroporti (messaggi METAR e TAF).

Le stazioni disponibili sono rappresentate dai dischi gialli e rossi sulla carta.

Puntare il mouse per vedere il nome della stazione.

Clicca sopra per visualizzare le osservazioni e previsioni meteorologiche.

Per cambiare la mappa : fare clic sui pulsanti verdi con una croce nera per ingrandire, il pulsante verde con un trattino per diminuire, o sulla freccia verde per le mappe adiacenti.


METAR-TAF: